sensor_id;sensor_type;location;lat;lon;timestamp;temperature;humidity
34877;DHT22;21086;44.780;17.194;2022-09-27T00:00:59;17.00;1.00
34877;DHT22;21086;44.780;17.194;2022-09-27T00:03:28;17.00;1.00
34877;DHT22;21086;44.780;17.194;2022-09-27T00:06:11;17.00;1.00
34877;DHT22;21086;44.780;17.194;2022-09-27T00:11:37;17.10;1.00
34877;DHT22;21086;44.780;17.194;2022-09-27T00:22:29;17.00;1.00
34877;DHT22;21086;44.780;17.194;2022-09-27T00:28:27;17.00;1.00
34877;DHT22;21086;44.780;17.194;2022-09-27T00:31:18;17.00;1.00
34877;DHT22;21086;44.780;17.194;2022-09-27T00:36:32;17.00;1.00
34877;DHT22;21086;44.780;17.194;2022-09-27T00:45:15;17.00;1.00
34877;DHT22;21086;44.780;17.194;2022-09-27T00:50:27;17.00;1.00
34877;DHT22;21086;44.780;17.194;2022-09-27T00:55:32;17.00;1.00
34877;DHT22;21086;44.780;17.194;2022-09-27T00:58:02;17.00;1.00
34877;DHT22;21086;44.780;17.194;2022-09-27T01:00:30;17.00;1.00
34877;DHT22;21086;44.780;17.194;2022-09-27T01:02:58;17.00;1.00
34877;DHT22;21086;44.780;17.194;2022-09-27T01:05:34;17.00;1.00
34877;DHT22;21086;44.780;17.194;2022-09-27T01:08:01;17.10;1.00
34877;DHT22;21086;44.780;17.194;2022-09-27T01:13:18;16.90;1.00
34877;DHT22;21086;44.780;17.194;2022-09-27T01:15:58;16.90;1.00
34877;DHT22;21086;44.780;17.194;2022-09-27T01:24:22;16.80;1.00
34877;DHT22;21086;44.780;17.194;2022-09-27T01:30:20;16.70;1.00
34877;DHT22;21086;44.780;17.194;2022-09-27T01:32:50;16.70;1.00
34877;DHT22;21086;44.780;17.194;2022-09-27T01:38:24;16.80;1.00
34877;DHT22;21086;44.780;17.194;2022-09-27T01:46:42;16.90;1.00
34877;DHT22;21086;44.780;17.194;2022-09-27T01:49:17;16.40;1.00
34877;DHT22;21086;44.780;17.194;2022-09-27T01:57:19;16.80;1.00
34877;DHT22;21086;44.780;17.194;2022-09-27T02:00:01;16.80;1.00
34877;DHT22;21086;44.780;17.194;2022-09-27T02:05:54;16.70;1.00
34877;DHT22;21086;44.780;17.194;2022-09-27T02:09:08;16.70;1.00
34877;DHT22;21086;44.780;17.194;2022-09-27T02:11:41;16.80;1.00
34877;DHT22;21086;44.780;17.194;2022-09-27T02:20:17;16.70;1.00
34877;DHT22;21086;44.780;17.194;2022-09-27T02:22:51;16.70;1.00
34877;DHT22;21086;44.780;17.194;2022-09-27T02:25:27;16.70;1.00
34877;DHT22;21086;44.780;17.194;2022-09-27T02:28:08;16.70;1.00
34877;DHT22;21086;44.780;17.194;2022-09-27T02:30:38;16.60;1.00
34877;DHT22;21086;44.780;17.194;2022-09-27T02:33:05;16.70;1.00
34877;DHT22;21086;44.780;17.194;2022-09-27T02:35:34;16.70;1.00
34877;DHT22;21086;44.780;17.194;2022-09-27T02:38:03;16.70;1.00
34877;DHT22;21086;44.780;17.194;2022-09-27T02:43:31;16.70;1.00
34877;DHT22;21086;44.780;17.194;2022-09-27T02:54:25;16.70;1.00
34877;DHT22;21086;44.780;17.194;2022-09-27T03:04:58;16.60;1.00
34877;DHT22;21086;44.780;17.194;2022-09-27T03:07:26;16.60;1.00
34877;DHT22;21086;44.780;17.194;2022-09-27T03:09:54;16.60;1.00
34877;DHT22;21086;44.780;17.194;2022-09-27T03:12:21;16.60;1.00
34877;DHT22;21086;44.780;17.194;2022-09-27T03:14:56;16.60;1.00
34877;DHT22;21086;44.780;17.194;2022-09-27T03:17:32;16.50;1.00
34877;DHT22;21086;44.780;17.194;2022-09-27T03:29:53;16.60;1.00
34877;DHT22;21086;44.780;17.194;2022-09-27T03:35:02;16.60;1.00
34877;DHT22;21086;44.780;17.194;2022-09-27T03:37:29;16.60;1.00
34877;DHT22;21086;44.780;17.194;2022-09-27T03:39:56;16.50;1.00
34877;DHT22;21086;44.780;17.194;2022-09-27T03:42:23;16.50;1.00
34877;DHT22;21086;44.780;17.194;2022-09-27T03:44:50;16.40;1.00
34877;DHT22;21086;44.780;17.194;2022-09-27T03:47:17;16.40;1.00
34877;DHT22;21086;44.780;17.194;2022-09-27T03:49:43;16.40;1.00
34877;DHT22;21086;44.780;17.194;2022-09-27T03:52:10;16.40;1.00
34877;DHT22;21086;44.780;17.194;2022-09-27T03:54:37;16.40;1.00
34877;DHT22;21086;44.780;17.194;2022-09-27T03:57:04;16.40;1.00
34877;DHT22;21086;44.780;17.194;2022-09-27T03:59:31;16.40;1.00
34877;DHT22;21086;44.780;17.194;2022-09-27T04:07:47;16.40;1.00
34877;DHT22;21086;44.780;17.194;2022-09-27T04:10:15;16.40;1.00
34877;DHT22;21086;44.780;17.194;2022-09-27T04:15:33;16.40;1.00
34877;DHT22;21086;44.780;17.194;2022-09-27T04:18:00;16.40;1.00
34877;DHT22;21086;44.780;17.194;2022-09-27T04:20:27;16.30;1.00
34877;DHT22;21086;44.780;17.194;2022-09-27T04:23:08;16.30;1.00
34877;DHT22;21086;44.780;17.194;2022-09-27T04:25:35;16.20;1.00
34877;DHT22;21086;44.780;17.194;2022-09-27T04:28:03;16.30;1.00
34877;DHT22;21086;44.780;17.194;2022-09-27T04:30:31;16.30;1.00
34877;DHT22;21086;44.780;17.194;2022-09-27T04:33:09;16.30;1.00
34877;DHT22;21086;44.780;17.194;2022-09-27T04:35:35;16.20;1.00
34877;DHT22;21086;44.780;17.194;2022-09-27T04:38:22;16.20;1.00
34877;DHT22;21086;44.780;17.194;2022-09-27T04:40:50;16.30;1.00
34877;DHT22;21086;44.780;17.194;2022-09-27T04:46:06;16.30;1.00
34877;DHT22;21086;44.780;17.194;2022-09-27T04:48:33;16.50;1.00
34877;DHT22;21086;44.780;17.194;2022-09-27T04:51:01;16.50;1.00
34877;DHT22;21086;44.780;17.194;2022-09-27T04:53:28;16.40;1.00
34877;DHT22;21086;44.780;17.194;2022-09-27T04:55:56;16.30;1.00
34877;DHT22;21086;44.780;17.194;2022-09-27T05:01:34;16.30;1.00
34877;DHT22;21086;44.780;17.194;2022-09-27T05:04:01;16.30;1.00
34877;DHT22;21086;44.780;17.194;2022-09-27T05:09:02;16.30;1.00
34877;DHT22;21086;44.780;17.194;2022-09-27T05:11:29;16.30;1.00
34877;DHT22;21086;44.780;17.194;2022-09-27T05:16:32;16.20;1.00
34877;DHT22;21086;44.780;17.194;2022-09-27T05:18:59;16.40;1.00
34877;DHT22;21086;44.780;17.194;2022-09-27T05:21:26;16.50;1.00
34877;DHT22;21086;44.780;17.194;2022-09-27T05:23:53;16.60;1.00
34877;DHT22;21086;44.780;17.194;2022-09-27T05:26:20;16.70;1.00
34877;DHT22;21086;44.780;17.194;2022-09-27T05:28:47;16.80;1.00
34877;DHT22;21086;44.780;17.194;2022-09-27T05:31:14;16.80;1.00
34877;DHT22;21086;44.780;17.194;2022-09-27T05:33:41;16.90;1.00
34877;DHT22;21086;44.780;17.194;2022-09-27T05:36:08;16.90;1.00
34877;DHT22;21086;44.780;17.194;2022-09-27T05:39:07;17.00;1.00
34877;DHT22;21086;44.780;17.194;2022-09-27T05:41:35;17.00;1.00
34877;DHT22;21086;44.780;17.194;2022-09-27T05:50:37;17.10;1.00
34877;DHT22;21086;44.780;17.194;2022-09-27T05:55:53;17.10;1.00
34877;DHT22;21086;44.780;17.194;2022-09-27T05:58:26;17.10;1.00
34877;DHT22;21086;44.780;17.194;2022-09-27T06:04:07;17.10;1.00
34877;DHT22;21086;44.780;17.194;2022-09-27T06:06:37;17.10;1.00
34877;DHT22;21086;44.780;17.194;2022-09-27T06:11:57;17.20;1.00
34877;DHT22;21086;44.780;17.194;2022-09-27T06:14:25;17.30;1.00
34877;DHT22;21086;44.780;17.194;2022-09-27T06:16:53;17.30;1.00
34877;DHT22;21086;44.780;17.194;2022-09-27T06:19:21;17.40;1.00
34877;DHT22;21086;44.780;17.194;2022-09-27T06:27:03;17.60;1.00
34877;DHT22;21086;44.780;17.194;2022-09-27T06:29:37;17.70;1.00
34877;DHT22;21086;44.780;17.194;2022-09-27T06:32:15;17.70;1.00
34877;DHT22;21086;44.780;17.194;2022-09-27T06:34:41;17.80;1.00
34877;DHT22;21086;44.780;17.194;2022-09-27T06:39:49;18.10;1.00
34877;DHT22;21086;44.780;17.194;2022-09-27T06:50:53;19.00;1.00
34877;DHT22;21086;44.780;17.194;2022-09-27T06:53:24;19.20;1.00
34877;DHT22;21086;44.780;17.194;2022-09-27T06:55:59;19.30;1.00
34877;DHT22;21086;44.780;17.194;2022-09-27T07:01:13;19.00;1.00
34877;DHT22;21086;44.780;17.194;2022-09-27T07:06:30;18.70;1.00
34877;DHT22;21086;44.780;17.194;2022-09-27T07:12:15;18.50;1.00
34877;DHT22;21086;44.780;17.194;2022-09-27T07:14:41;18.30;1.00
34877;DHT22;21086;44.780;17.194;2022-09-27T07:19:42;18.30;99.90
34877;DHT22;21086;44.780;17.194;2022-09-27T07:22:09;18.20;99.90
34877;DHT22;21086;44.780;17.194;2022-09-27T07:24:35;18.20;99.90
34877;DHT22;21086;44.780;17.194;2022-09-27T07:27:02;18.20;99.90
34877;DHT22;21086;44.780;17.194;2022-09-27T07:29:53;18.20;99.90
34877;DHT22;21086;44.780;17.194;2022-09-27T07:32:20;18.20;99.90
34877;DHT22;21086;44.780;17.194;2022-09-27T07:38:06;18.20;99.90
34877;DHT22;21086;44.780;17.194;2022-09-27T07:43:41;18.70;99.90
34877;DHT22;21086;44.780;17.194;2022-09-27T07:46:10;19.00;99.90
34877;DHT22;21086;44.780;17.194;2022-09-27T07:51:14;19.40;99.90
34877;DHT22;21086;44.780;17.194;2022-09-27T07:53:41;19.50;99.90
34877;DHT22;21086;44.780;17.194;2022-09-27T07:56:27;19.70;99.90
34877;DHT22;21086;44.780;17.194;2022-09-27T08:02:06;20.00;99.90
34877;DHT22;21086;44.780;17.194;2022-09-27T08:04:33;20.10;99.90
34877;DHT22;21086;44.780;17.194;2022-09-27T08:07:07;20.30;99.90
34877;DHT22;21086;44.780;17.194;2022-09-27T08:09:37;20.40;99.90
34877;DHT22;21086;44.780;17.194;2022-09-27T08:12:04;20.60;99.90
34877;DHT22;21086;44.780;17.194;2022-09-27T08:17:31;20.90;99.90
34877;DHT22;21086;44.780;17.194;2022-09-27T08:19:59;21.20;99.90
34877;DHT22;21086;44.780;17.194;2022-09-27T08:22:42;21.20;99.90
34877;DHT22;21086;44.780;17.194;2022-09-27T08:25:09;21.30;99.90
34877;DHT22;21086;44.780;17.194;2022-09-27T08:27:36;21.30;99.90
34877;DHT22;21086;44.780;17.194;2022-09-27T08:30:10;21.00;99.90
34877;DHT22;21086;44.780;17.194;2022-09-27T08:35:50;20.40;99.90
34877;DHT22;21086;44.780;17.194;2022-09-27T08:38:30;18.80;99.90
34877;DHT22;21086;44.780;17.194;2022-09-27T08:57:10;20.10;99.90
34877;DHT22;21086;44.780;17.194;2022-09-27T09:02:42;20.40;99.90
34877;DHT22;21086;44.780;17.194;2022-09-27T09:10:53;20.80;99.90
34877;DHT22;21086;44.780;17.194;2022-09-27T09:19:27;20.70;99.90
34877;DHT22;21086;44.780;17.194;2022-09-27T09:30:47;21.20;99.90
34877;DHT22;21086;44.780;17.194;2022-09-27T09:38:51;21.30;99.90
34877;DHT22;21086;44.780;17.194;2022-09-27T09:54:01;21.90;99.90
34877;DHT22;21086;44.780;17.194;2022-09-27T09:56:34;22.20;99.90
34877;DHT22;21086;44.780;17.194;2022-09-27T09:59:14;22.40;99.90
34877;DHT22;21086;44.780;17.194;2022-09-27T10:01:56;22.50;99.90
34877;DHT22;21086;44.780;17.194;2022-09-27T10:04:26;22.70;99.90
34877;DHT22;21086;44.780;17.194;2022-09-27T10:10:19;22.80;99.90
34877;DHT22;21086;44.780;17.194;2022-09-27T10:12:47;23.00;99.90
34877;DHT22;21086;44.780;17.194;2022-09-27T10:18:26;23.70;99.90
34877;DHT22;21086;44.780;17.194;2022-09-27T10:21:00;23.90;99.90
34877;DHT22;21086;44.780;17.194;2022-09-27T10:23:29;23.40;99.90
34877;DHT22;21086;44.780;17.194;2022-09-27T10:31:40;23.20;99.90
34877;DHT22;21086;44.780;17.194;2022-09-27T10:39:57;25.10;99.90
34877;DHT22;21086;44.780;17.194;2022-09-27T10:42:31;26.90;99.90
34877;DHT22;21086;44.780;17.194;2022-09-27T10:50:20;25.60;99.90
34877;DHT22;21086;44.780;17.194;2022-09-27T10:53:19;25.00;99.90
34877;DHT22;21086;44.780;17.194;2022-09-27T11:08:50;32.70;99.90
34877;DHT22;21086;44.780;17.194;2022-09-27T11:11:22;32.40;99.90
34877;DHT22;21086;44.780;17.194;2022-09-27T11:24:40;33.60;99.90
34877;DHT22;21086;44.780;17.194;2022-09-27T11:41:26;34.20;99.90
34877;DHT22;21086;44.780;17.194;2022-09-27T11:47:19;33.90;99.90
34877;DHT22;21086;44.780;17.194;2022-09-27T12:09:33;34.80;99.90
34877;DHT22;21086;44.780;17.194;2022-09-27T12:12:13;35.20;99.90
34877;DHT22;21086;44.780;17.194;2022-09-27T12:14:47;35.80;99.90
34877;DHT22;21086;44.780;17.194;2022-09-27T12:17:30;36.90;99.90
34877;DHT22;21086;44.780;17.194;2022-09-27T12:20:04;38.30;99.90
34877;DHT22;21086;44.780;17.194;2022-09-27T12:25:29;37.60;99.90
34877;DHT22;21086;44.780;17.194;2022-09-27T12:28:08;37.50;99.90
34877;DHT22;21086;44.780;17.194;2022-09-27T12:30:40;37.30;99.90
34877;DHT22;21086;44.780;17.194;2022-09-27T12:33:29;37.20;99.90
34877;DHT22;21086;44.780;17.194;2022-09-27T12:36:05;37.40;99.90
34877;DHT22;21086;44.780;17.194;2022-09-27T12:38:45;38.00;99.90
34877;DHT22;21086;44.780;17.194;2022-09-27T12:41:17;37.80;99.90
34877;DHT22;21086;44.780;17.194;2022-09-27T12:43:48;38.00;99.90
34877;DHT22;21086;44.780;17.194;2022-09-27T12:49:18;38.10;99.90
34877;DHT22;21086;44.780;17.194;2022-09-27T12:51:55;38.90;99.90
34877;DHT22;21086;44.780;17.194;2022-09-27T13:00:39;34.30;99.90
34877;DHT22;21086;44.780;17.194;2022-09-27T13:06:47;34.70;99.90
34877;DHT22;21086;44.780;17.194;2022-09-27T13:12:25;32.70;99.90
34877;DHT22;21086;44.780;17.194;2022-09-27T13:14:56;29.90;99.90
34877;DHT22;21086;44.780;17.194;2022-09-27T13:22:58;26.10;99.90
34877;DHT22;21086;44.780;17.194;2022-09-27T13:25:51;25.00;99.90
34877;DHT22;21086;44.780;17.194;2022-09-27T13:46:24;23.40;99.90
34877;DHT22;21086;44.780;17.194;2022-09-27T13:49:12;23.60;99.90
34877;DHT22;21086;44.780;17.194;2022-09-27T13:51:51;23.50;99.90
34877;DHT22;21086;44.780;17.194;2022-09-27T13:57:01;23.90;99.90
34877;DHT22;21086;44.780;17.194;2022-09-27T14:10:15;22.60;99.90
34877;DHT22;21086;44.780;17.194;2022-09-27T14:12:43;30.20;99.90
34877;DHT22;21086;44.780;17.194;2022-09-27T14:15:25;31.70;99.90
34877;DHT22;21086;44.780;17.194;2022-09-27T14:17:55;32.40;99.90
34877;DHT22;21086;44.780;17.194;2022-09-27T14:20:39;33.50;99.90
34877;DHT22;21086;44.780;17.194;2022-09-27T14:23:22;33.60;99.90
34877;DHT22;21086;44.780;17.194;2022-09-27T14:25:51;34.30;99.90
34877;DHT22;21086;44.780;17.194;2022-09-27T14:28:19;34.80;99.90
34877;DHT22;21086;44.780;17.194;2022-09-27T14:30:46;33.80;99.90
34877;DHT22;21086;44.780;17.194;2022-09-27T14:33:31;33.90;99.90
34877;DHT22;21086;44.780;17.194;2022-09-27T14:35:59;33.40;99.90
34877;DHT22;21086;44.780;17.194;2022-09-27T14:38:49;33.50;99.90
34877;DHT22;21086;44.780;17.194;2022-09-27T14:41:16;33.10;99.90
34877;DHT22;21086;44.780;17.194;2022-09-27T14:43:45;32.50;99.90
34877;DHT22;21086;44.780;17.194;2022-09-27T14:46:28;32.00;99.90
34877;DHT22;21086;44.780;17.194;2022-09-27T14:48:55;31.80;99.90
34877;DHT22;21086;44.780;17.194;2022-09-27T14:51:28;31.40;99.90
34877;DHT22;21086;44.780;17.194;2022-09-27T14:53:58;32.00;99.90
34877;DHT22;21086;44.780;17.194;2022-09-27T14:56:35;32.10;99.90
34877;DHT22;21086;44.780;17.194;2022-09-27T14:59:35;31.80;99.90
34877;DHT22;21086;44.780;17.194;2022-09-27T15:02:10;31.50;99.90
34877;DHT22;21086;44.780;17.194;2022-09-27T15:04:43;30.60;99.90
34877;DHT22;21086;44.780;17.194;2022-09-27T15:07:15;30.20;99.90
34877;DHT22;21086;44.780;17.194;2022-09-27T15:09:43;29.70;99.90
34877;DHT22;21086;44.780;17.194;2022-09-27T15:14:51;30.90;99.90
34877;DHT22;21086;44.780;17.194;2022-09-27T15:17:21;31.10;99.90
34877;DHT22;21086;44.780;17.194;2022-09-27T15:20:17;30.90;99.90
34877;DHT22;21086;44.780;17.194;2022-09-27T15:22:44;31.20;99.90
34877;DHT22;21086;44.780;17.194;2022-09-27T15:25:18;31.70;99.90
34877;DHT22;21086;44.780;17.194;2022-09-27T15:27:53;32.00;99.90
34877;DHT22;21086;44.780;17.194;2022-09-27T15:30:26;31.80;99.90
34877;DHT22;21086;44.780;17.194;2022-09-27T15:32:56;30.40;99.90
34877;DHT22;21086;44.780;17.194;2022-09-27T15:35:27;30.10;99.90
34877;DHT22;21086;44.780;17.194;2022-09-27T15:51:45;27.30;99.90
34877;DHT22;21086;44.780;17.194;2022-09-27T15:54:12;26.70;99.90
34877;DHT22;21086;44.780;17.194;2022-09-27T15:56:39;25.90;99.90
34877;DHT22;21086;44.780;17.194;2022-09-27T15:59:24;25.10;99.90
34877;DHT22;21086;44.780;17.194;2022-09-27T16:02:00;24.40;99.90
34877;DHT22;21086;44.780;17.194;2022-09-27T16:04:33;23.80;99.90
34877;DHT22;21086;44.780;17.194;2022-09-27T16:07:01;23.40;99.90
34877;DHT22;21086;44.780;17.194;2022-09-27T16:09:30;23.00;99.90
34877;DHT22;21086;44.780;17.194;2022-09-27T16:11:57;23.70;99.90
34877;DHT22;21086;44.780;17.194;2022-09-27T16:14:24;22.30;99.90
34877;DHT22;21086;44.780;17.194;2022-09-27T16:16:53;22.10;99.90
34877;DHT22;21086;44.780;17.194;2022-09-27T16:19:24;21.80;99.90
34877;DHT22;21086;44.780;17.194;2022-09-27T16:21:51;21.60;99.90
34877;DHT22;21086;44.780;17.194;2022-09-27T16:24:18;21.40;99.90
34877;DHT22;21086;44.780;17.194;2022-09-27T16:26:45;21.20;99.90
34877;DHT22;21086;44.780;17.194;2022-09-27T16:29:14;21.10;99.90
34877;DHT22;21086;44.780;17.194;2022-09-27T16:31:41;21.10;99.90
34877;DHT22;21086;44.780;17.194;2022-09-27T16:34:09;21.00;99.90
34877;DHT22;21086;44.780;17.194;2022-09-27T16:36:36;20.80;99.90
34877;DHT22;21086;44.780;17.194;2022-09-27T16:39:10;20.70;99.90
34877;DHT22;21086;44.780;17.194;2022-09-27T16:41:39;20.70;99.90
34877;DHT22;21086;44.780;17.194;2022-09-27T16:44:08;20.50;99.90
34877;DHT22;21086;44.780;17.194;2022-09-27T16:46:35;20.50;99.90
34877;DHT22;21086;44.780;17.194;2022-09-27T16:49:04;20.40;99.90
34877;DHT22;21086;44.780;17.194;2022-09-27T16:51:51;20.40;99.90
34877;DHT22;21086;44.780;17.194;2022-09-27T16:54:30;20.40;99.90
34877;DHT22;21086;44.780;17.194;2022-09-27T16:56:58;20.40;99.90
34877;DHT22;21086;44.780;17.194;2022-09-27T16:59:26;20.30;99.90
34877;DHT22;21086;44.780;17.194;2022-09-27T17:01:53;20.40;99.90
34877;DHT22;21086;44.780;17.194;2022-09-27T17:04:26;20.40;99.90
34877;DHT22;21086;44.780;17.194;2022-09-27T17:06:54;20.40;99.90
34877;DHT22;21086;44.780;17.194;2022-09-27T17:09:24;20.40;99.90
34877;DHT22;21086;44.780;17.194;2022-09-27T17:11:51;20.40;99.90
34877;DHT22;21086;44.780;17.194;2022-09-27T17:14:19;20.30;99.90
34877;DHT22;21086;44.780;17.194;2022-09-27T17:16:46;20.20;99.90
34877;DHT22;21086;44.780;17.194;2022-09-27T17:19:17;20.20;99.90
34877;DHT22;21086;44.780;17.194;2022-09-27T17:21:44;20.20;99.90
34877;DHT22;21086;44.780;17.194;2022-09-27T17:24:11;20.30;99.90
34877;DHT22;21086;44.780;17.194;2022-09-27T17:26:39;20.30;99.90
34877;DHT22;21086;44.780;17.194;2022-09-27T17:29:06;20.30;99.90
34877;DHT22;21086;44.780;17.194;2022-09-27T17:31:36;20.30;99.90
34877;DHT22;21086;44.780;17.194;2022-09-27T17:34:03;20.30;99.90
34877;DHT22;21086;44.780;17.194;2022-09-27T17:36:32;20.20;99.90
34877;DHT22;21086;44.780;17.194;2022-09-27T17:39:01;20.10;99.90
34877;DHT22;21086;44.780;17.194;2022-09-27T17:41:29;20.00;99.90
34877;DHT22;21086;44.780;17.194;2022-09-27T17:44:00;20.00;99.90
34877;DHT22;21086;44.780;17.194;2022-09-27T17:46:29;19.90;99.90
34877;DHT22;21086;44.780;17.194;2022-09-27T17:48:56;19.90;99.90
34877;DHT22;21086;44.780;17.194;2022-09-27T17:51:46;19.90;99.90
34877;DHT22;21086;44.780;17.194;2022-09-27T17:54:14;19.80;99.90
34877;DHT22;21086;44.780;17.194;2022-09-27T17:56:43;19.60;99.90
34877;DHT22;21086;44.780;17.194;2022-09-27T17:59:11;19.50;99.90
34877;DHT22;21086;44.780;17.194;2022-09-27T18:01:38;19.40;99.90
34877;DHT22;21086;44.780;17.194;2022-09-27T18:04:07;19.20;99.90
34877;DHT22;21086;44.780;17.194;2022-09-27T18:06:42;19.10;99.90
34877;DHT22;21086;44.780;17.194;2022-09-27T18:09:11;19.00;99.90
34877;DHT22;21086;44.780;17.194;2022-09-27T18:11:39;18.90;99.90
34877;DHT22;21086;44.780;17.194;2022-09-27T18:14:06;18.80;99.90
34877;DHT22;21086;44.780;17.194;2022-09-27T18:16:37;18.70;99.90
34877;DHT22;21086;44.780;17.194;2022-09-27T18:19:06;18.70;99.90
34877;DHT22;21086;44.780;17.194;2022-09-27T18:21:33;18.50;99.90
34877;DHT22;21086;44.780;17.194;2022-09-27T18:24:01;18.50;99.90
34877;DHT22;21086;44.780;17.194;2022-09-27T18:26:33;18.50;99.90
34877;DHT22;21086;44.780;17.194;2022-09-27T18:29:09;18.40;99.90
34877;DHT22;21086;44.780;17.194;2022-09-27T18:31:36;18.30;99.90
34877;DHT22;21086;44.780;17.194;2022-09-27T18:34:08;18.20;99.90
34877;DHT22;21086;44.780;17.194;2022-09-27T18:36:35;18.20;99.90
34877;DHT22;21086;44.780;17.194;2022-09-27T18:39:04;18.10;99.90
34877;DHT22;21086;44.780;17.194;2022-09-27T18:41:33;18.10;99.90
34877;DHT22;21086;44.780;17.194;2022-09-27T18:44:02;18.00;99.90
34877;DHT22;21086;44.780;17.194;2022-09-27T18:46:31;18.00;99.90
34877;DHT22;21086;44.780;17.194;2022-09-27T18:49:04;18.00;99.90
34877;DHT22;21086;44.780;17.194;2022-09-27T18:51:32;18.00;99.90
34877;DHT22;21086;44.780;17.194;2022-09-27T18:54:00;17.90;99.90
34877;DHT22;21086;44.780;17.194;2022-09-27T18:56:28;17.60;99.90
34877;DHT22;21086;44.780;17.194;2022-09-27T18:58:56;17.60;99.90
34877;DHT22;21086;44.780;17.194;2022-09-27T19:01:27;17.80;99.90
34877;DHT22;21086;44.780;17.194;2022-09-27T19:04:02;16.20;99.90
34877;DHT22;21086;44.780;17.194;2022-09-27T19:06:29;17.60;99.90
34877;DHT22;21086;44.780;17.194;2022-09-27T19:08:56;17.80;99.90
34877;DHT22;21086;44.780;17.194;2022-09-27T19:11:27;17.90;99.90
34877;DHT22;21086;44.780;17.194;2022-09-27T19:13:56;17.60;99.90
34877;DHT22;21086;44.780;17.194;2022-09-27T19:16:24;17.70;99.90
34877;DHT22;21086;44.780;17.194;2022-09-27T19:18:52;17.70;99.90
34877;DHT22;21086;44.780;17.194;2022-09-27T19:21:25;17.70;99.90
34877;DHT22;21086;44.780;17.194;2022-09-27T19:23:56;17.70;99.90
34877;DHT22;21086;44.780;17.194;2022-09-27T19:26:25;17.80;99.90
34877;DHT22;21086;44.780;17.194;2022-09-27T19:28:52;17.80;99.90
34877;DHT22;21086;44.780;17.194;2022-09-27T19:31:22;17.80;99.90
34877;DHT22;21086;44.780;17.194;2022-09-27T19:33:52;17.60;99.90
34877;DHT22;21086;44.780;17.194;2022-09-27T19:36:25;17.80;99.90
34877;DHT22;21086;44.780;17.194;2022-09-27T19:38:53;17.70;99.90
34877;DHT22;21086;44.780;17.194;2022-09-27T19:41:25;17.60;99.90
34877;DHT22;21086;44.780;17.194;2022-09-27T19:43:53;17.60;99.90
34877;DHT22;21086;44.780;17.194;2022-09-27T19:46:21;17.70;99.90
34877;DHT22;21086;44.780;17.194;2022-09-27T19:48:52;17.70;99.90
34877;DHT22;21086;44.780;17.194;2022-09-27T19:51:26;16.50;99.90
34877;DHT22;21086;44.780;17.194;2022-09-27T19:53:53;17.60;99.90
34877;DHT22;21086;44.780;17.194;2022-09-27T19:58:56;17.50;99.90
34877;DHT22;21086;44.780;17.194;2022-09-27T20:03:58;17.50;99.90
34877;DHT22;21086;44.780;17.194;2022-09-27T20:06:25;17.50;99.90
34877;DHT22;21086;44.780;17.194;2022-09-27T20:08:54;17.50;99.90
34877;DHT22;21086;44.780;17.194;2022-09-27T20:14:12;17.40;99.90
34877;DHT22;21086;44.780;17.194;2022-09-27T20:22:15;17.30;99.90
34877;DHT22;21086;44.780;17.194;2022-09-27T20:27:40;17.30;99.90
34877;DHT22;21086;44.780;17.194;2022-09-27T20:30:10;15.80;99.90
34877;DHT22;21086;44.780;17.194;2022-09-27T20:35:37;17.20;99.90
34877;DHT22;21086;44.780;17.194;2022-09-27T20:38:03;17.20;99.90
34877;DHT22;21086;44.780;17.194;2022-09-27T20:40:33;17.20;99.90
34877;DHT22;21086;44.780;17.194;2022-09-27T20:45:35;17.20;99.90
34877;DHT22;21086;44.780;17.194;2022-09-27T20:48:02;17.20;99.90
34877;DHT22;21086;44.780;17.194;2022-09-27T20:50:32;17.20;99.90
34877;DHT22;21086;44.780;17.194;2022-09-27T20:53:04;17.20;99.90
34877;DHT22;21086;44.780;17.194;2022-09-27T20:58:07;17.10;99.90
34877;DHT22;21086;44.780;17.194;2022-09-27T21:08:40;17.10;99.90
34877;DHT22;21086;44.780;17.194;2022-09-27T21:11:23;17.00;99.90
34877;DHT22;21086;44.780;17.194;2022-09-27T21:17:39;17.00;99.90
34877;DHT22;21086;44.780;17.194;2022-09-27T21:20:13;17.00;99.90
34877;DHT22;21086;44.780;17.194;2022-09-27T21:22:44;17.00;99.90
34877;DHT22;21086;44.780;17.194;2022-09-27T21:25:14;16.90;99.90
34877;DHT22;21086;44.780;17.194;2022-09-27T21:27:44;16.80;99.90
34877;DHT22;21086;44.780;17.194;2022-09-27T21:35:32;16.90;99.90
34877;DHT22;21086;44.780;17.194;2022-09-27T21:45:05;16.80;99.90
34877;DHT22;21086;44.780;17.194;2022-09-27T21:47:34;16.10;99.90
34877;DHT22;21086;44.780;17.194;2022-09-27T21:50:01;16.60;99.90
34877;DHT22;21086;44.780;17.194;2022-09-27T21:52:28;16.60;99.90
34877;DHT22;21086;44.780;17.194;2022-09-27T21:57:41;16.70;99.90
34877;DHT22;21086;44.780;17.194;2022-09-27T22:03:20;16.60;99.90
34877;DHT22;21086;44.780;17.194;2022-09-27T22:05:49;16.50;99.90
34877;DHT22;21086;44.780;17.194;2022-09-27T22:08:17;15.50;99.90
34877;DHT22;21086;44.780;17.194;2022-09-27T22:10:57;16.30;99.90
34877;DHT22;21086;44.780;17.194;2022-09-27T22:13:38;15.90;99.90
34877;DHT22;21086;44.780;17.194;2022-09-27T22:16:10;16.40;99.90
34877;DHT22;21086;44.780;17.194;2022-09-27T22:18:38;16.40;99.90
34877;DHT22;21086;44.780;17.194;2022-09-27T22:21:07;16.40;99.90
34877;DHT22;21086;44.780;17.194;2022-09-27T22:23:34;16.40;99.90
34877;DHT22;21086;44.780;17.194;2022-09-27T22:26:16;16.30;99.90
34877;DHT22;21086;44.780;17.194;2022-09-27T22:28:44;16.30;99.90
34877;DHT22;21086;44.780;17.194;2022-09-27T22:33:48;16.20;99.90
34877;DHT22;21086;44.780;17.194;2022-09-27T22:36:15;16.20;99.90
34877;DHT22;21086;44.780;17.194;2022-09-27T22:44:13;16.30;99.90
34877;DHT22;21086;44.780;17.194;2022-09-27T22:46:41;16.30;99.90
34877;DHT22;21086;44.780;17.194;2022-09-27T22:49:08;16.10;99.90
34877;DHT22;21086;44.780;17.194;2022-09-27T22:51:35;16.10;99.90
34877;DHT22;21086;44.780;17.194;2022-09-27T22:54:02;16.10;99.90
34877;DHT22;21086;44.780;17.194;2022-09-27T22:56:29;16.00;99.90
34877;DHT22;21086;44.780;17.194;2022-09-27T22:58:59;16.00;99.90
34877;DHT22;21086;44.780;17.194;2022-09-27T23:04:13;16.00;99.90
34877;DHT22;21086;44.780;17.194;2022-09-27T23:06:40;16.00;99.90
34877;DHT22;21086;44.780;17.194;2022-09-27T23:09:08;16.00;99.90
34877;DHT22;21086;44.780;17.194;2022-09-27T23:11:38;16.00;99.90
34877;DHT22;21086;44.780;17.194;2022-09-27T23:14:06;16.10;99.90
34877;DHT22;21086;44.780;17.194;2022-09-27T23:16:34;16.00;99.90
34877;DHT22;21086;44.780;17.194;2022-09-27T23:19:02;15.90;99.90
34877;DHT22;21086;44.780;17.194;2022-09-27T23:21:29;15.90;99.90